Time;durP1;ratioP1;P1;durP2;ratioP2;P2;SDS_P1;SDS_P2;PMS_P1;PMS_P2;Temp;Humidity;BMP_temperature;BMP_pressure;BME280_temperature;BME280_humidity;BME280_pressure;Samples;Min_cycle;Max_cycle;Signal;HPM_P1;HPM_P2
2022/09/22 00:01:58;;;;;;;11.68;5.47;;;;;;;;;;5011932;28;20036;-73
2022/09/22 00:04:24;;;;;;;11.18;5.80;;;;;;;;;;5010917;28;20030;-74
2022/09/22 00:06:51;;;;;;;10.10;5.15;;;;;;;;;;5010520;28;20030;-73
2022/09/22 00:09:18;;;;;;;12.30;5.55;;;;;;;;;;5009210;28;20029;-74
2022/09/22 00:11:45;;;;;;;9.43;4.90;;;;;;;;;;5010542;28;20018;-74
2022/09/22 00:14:13;;;;;;;10.27;4.80;;;;;;;;;;5011165;28;20026;-73
2022/09/22 00:16:46;;;;;;;7.28;4.65;;;;;;;;;;5011738;28;20043;-73
2022/09/22 00:19:14;;;;;;;9.07;4.72;;;;;;;;;;5011212;28;20061;-75
2022/09/22 00:21:40;;;;;;;8.45;4.43;;;;;;;;;;5011607;28;20021;-73
2022/09/22 00:24:06;;;;;;;7.43;4.47;;;;;;;;;;5011827;28;20415;-73
2022/09/22 00:26:34;;;;;;;8.18;4.32;;;;;;;;;;5010275;28;20436;-73
2022/09/22 00:29:00;;;;;;;6.82;4.03;;;;;;;;;;5010863;28;20395;-73
2022/09/22 00:31:27;;;;;;;7.28;4.68;;;;;;;;;;5009839;28;20025;-74
2022/09/22 00:33:53;;;;;;;8.98;4.03;;;;;;;;;;5011766;28;20026;-74
2022/09/22 00:36:20;;;;;;;4.68;4.10;;;;;;;;;;5011393;28;20083;-73
2022/09/22 00:38:49;;;;;;;9.10;4.68;;;;;;;;;;5009491;28;20080;-74
2022/09/22 00:41:17;;;;;;;7.03;4.13;;;;;;;;;;5010815;28;20045;-73
2022/09/22 00:43:43;;;;;;;9.00;5.20;;;;;;;;;;5011302;28;20448;-73
2022/09/22 00:46:23;;;;;;;6.07;4.43;;;;;;;;;;5011321;28;20041;-74
2022/09/22 00:48:52;;;;;;;12.20;4.90;;;;;;;;;;5011410;28;20018;-74
2022/09/22 00:51:21;;;;;;;8.88;5.07;;;;;;;;;;5012670;28;20030;-74
2022/09/22 00:53:47;;;;;;;6.03;4.20;;;;;;;;;;5012621;28;20054;-74
2022/09/22 00:56:15;;;;;;;5.10;4.45;;;;;;;;;;5008712;28;20341;-74
2022/09/22 00:58:48;;;;;;;6.20;3.92;;;;;;;;;;5011300;28;20033;-75
2022/09/22 01:01:14;;;;;;;5.95;4.47;;;;;;;;;;5010891;28;20395;-73
2022/09/22 01:03:41;;;;;;;9.57;4.60;;;;;;;;;;5011585;28;20037;-74
2022/09/22 01:06:09;;;;;;;5.47;4.40;;;;;;;;;;5010219;28;20037;-74
2022/09/22 01:08:36;;;;;;;7.43;4.90;;;;;;;;;;5010904;28;20022;-74
2022/09/22 01:11:02;;;;;;;6.28;4.65;;;;;;;;;;5006114;28;20152;-74
2022/09/22 01:13:28;;;;;;;7.70;4.47;;;;;;;;;;5011158;28;20045;-73
2022/09/22 01:15:57;;;;;;;7.82;5.28;;;;;;;;;;5003171;28;20030;-73
2022/09/22 01:18:28;;;;;;;5.88;4.25;;;;;;;;;;5012692;28;20068;-74
2022/09/22 01:20:58;;;;;;;6.25;4.60;;;;;;;;;;5013439;28;20022;-73
2022/09/22 01:23:27;;;;;;;5.30;4.40;;;;;;;;;;5009931;28;20029;-73
2022/09/22 01:26:12;;;;;;;6.97;4.95;;;;;;;;;;5010811;28;20021;-73
2022/09/22 01:28:57;;;;;;;8.38;4.88;;;;;;;;;;5010573;28;20427;-72
2022/09/22 01:31:30;;;;;;;6.60;5.13;;;;;;;;;;5009214;28;20034;-73
2022/09/22 01:34:09;;;;;;;7.22;4.63;;;;;;;;;;5010027;28;20054;-73
2022/09/22 01:36:55;;;;;;;5.85;4.82;;;;;;;;;;5009973;28;20522;-74
2022/09/22 01:39:33;;;;;;;6.68;4.43;;;;;;;;;;5003189;28;20484;-73
2022/09/22 01:42:02;;;;;;;6.00;4.78;;;;;;;;;;5011450;28;20087;-73
2022/09/22 01:44:32;;;;;;;7.15;5.68;;;;;;;;;;5010897;28;20087;-73
2022/09/22 01:47:01;;;;;;;7.95;5.50;;;;;;;;;;5011111;28;20060;-71
2022/09/22 01:49:29;;;;;;;8.63;6.20;;;;;;;;;;5010424;28;20022;-74
2022/09/22 01:52:00;;;;;;;11.02;7.10;;;;;;;;;;5011738;28;20439;-73
2022/09/22 01:54:26;;;;;;;;;;;;;;;;;;5015097;28;20060;-73
2022/09/22 01:56:56;;;;;;;11.07;7.80;;;;;;;;;;5014630;28;20363;-73
2022/09/22 01:59:23;;;;;;;8.80;7.50;;;;;;;;;;5013427;28;20071;-73
2022/09/22 02:01:56;;;;;;;12.52;7.38;;;;;;;;;;5014469;28;20018;-73
2022/09/22 02:04:25;;;;;;;9.82;6.72;;;;;;;;;;5014264;28;20029;-73
2022/09/22 02:06:57;;;;;;;11.77;7.72;;;;;;;;;;5014190;28;20022;-73
2022/09/22 02:09:25;;;;;;;9.82;7.15;;;;;;;;;;5013476;28;20072;-73
2022/09/22 02:11:51;;;;;;;8.93;6.60;;;;;;;;;;5014341;28;20034;-75
2022/09/22 02:14:17;;;;;;;9.10;6.05;;;;;;;;;;5014046;28;20439;-75
2022/09/22 02:16:43;;;;;;;9.13;6.28;;;;;;;;;;5014158;28;20464;-75
2022/09/22 02:19:15;;;;;;;10.70;6.78;;;;;;;;;;5013212;28;20022;-75
2022/09/22 02:21:43;;;;;;;9.00;6.68;;;;;;;;;;5012778;28;20022;-73
2022/09/22 02:24:44;;;;;;;8.85;6.13;;;;;;;;;;5014118;28;20026;-75
2022/09/22 02:27:24;;;;;;;14.10;7.50;;;;;;;;;;4962933;28;20493;-72
2022/09/22 02:32:30;;;;;;;14.18;7.63;;;;;;;;;;4992892;28;20049;-71
2022/09/22 02:34:56;;;;;;;13.88;7.63;;;;;;;;;;4994253;28;20029;-72
2022/09/22 02:37:38;;;;;;;12.00;7.68;;;;;;;;;;4994180;28;20694;-71
2022/09/22 02:40:04;;;;;;;;;;;;;;;;;;4994645;28;20069;-73
2022/09/22 02:42:32;;;;;;;12.15;6.30;;;;;;;;;;4994364;28;19956;-73
2022/09/22 02:45:10;;;;;;;14.48;8.65;;;;;;;;;;4976935;28;20030;-72
2022/09/22 02:47:39;;;;;;;16.08;7.97;;;;;;;;;;4975688;28;20447;-72
2022/09/22 02:50:08;;;;;;;16.90;8.52;;;;;;;;;;4994119;28;20038;-72
2022/09/22 02:52:36;;;;;;;11.52;8.25;;;;;;;;;;4993999;28;20496;-73
2022/09/22 02:55:02;;;;;;;18.25;9.38;;;;;;;;;;4993850;28;20571;-72
2022/09/22 02:57:28;;;;;;;13.48;9.00;;;;;;;;;;4975969;28;20109;-73
2022/09/22 02:59:54;;;;;;;13.75;8.45;;;;;;;;;;4976081;28;20431;-72
2022/09/22 03:02:19;;;;;;;15.57;9.20;;;;;;;;;;4994213;28;20031;-73
2022/09/22 03:04:45;;;;;;;12.63;8.25;;;;;;;;;;4993497;28;20030;-73
2022/09/22 03:07:11;;;;;;;13.40;8.32;;;;;;;;;;4993115;28;20034;-73
2022/09/22 03:09:37;;;;;;;14.73;9.05;;;;;;;;;;4993236;28;20109;-72
2022/09/22 03:12:04;;;;;;;12.05;8.43;;;;;;;;;;4976219;28;20025;-72
2022/09/22 03:14:30;;;;;;;15.15;8.57;;;;;;;;;;4993333;28;20109;-72
2022/09/22 03:16:56;;;;;;;15.38;8.95;;;;;;;;;;4993652;28;20472;-71
2022/09/22 03:19:21;;;;;;;11.50;8.25;;;;;;;;;;4992531;28;20037;-72
2022/09/22 03:21:47;;;;;;;12.98;8.35;;;;;;;;;;4993544;28;20022;-72
2022/09/22 03:24:13;;;;;;;13.45;8.05;;;;;;;;;;4993126;28;20026;-72
2022/09/22 03:26:39;;;;;;;15.05;8.98;;;;;;;;;;4975887;28;20475;-72
2022/09/22 03:29:05;;;;;;;14.88;8.75;;;;;;;;;;4992556;28;20033;-72
2022/09/22 03:31:31;;;;;;;13.95;9.07;;;;;;;;;;4991046;28;20027;-72
2022/09/22 03:33:57;;;;;;;15.77;9.07;;;;;;;;;;4993078;28;20026;-73
2022/09/22 03:36:23;;;;;;;14.00;10.32;;;;;;;;;;4975308;28;20468;-71
2022/09/22 03:38:50;;;;;;;12.65;8.90;;;;;;;;;;4992214;28;20479;-72
2022/09/22 03:41:16;;;;;;;14.52;8.85;;;;;;;;;;4992871;28;20491;-72
2022/09/22 03:43:42;;;;;;;13.50;8.60;;;;;;;;;;4993096;28;20022;-72
2022/09/22 03:46:08;;;;;;;12.00;8.70;;;;;;;;;;4992447;28;20037;-72
2022/09/22 03:48:34;;;;;;;13.30;8.35;;;;;;;;;;4991980;28;20027;-71
2022/09/22 03:51:00;;;;;;;12.50;8.80;;;;;;;;;;4992529;28;20404;-73
2022/09/22 03:53:27;;;;;;;12.48;8.18;;;;;;;;;;4992752;28;20025;-72
2022/09/22 03:56:03;;;;;;;13.30;8.15;;;;;;;;;;4992469;28;20025;-71
2022/09/22 03:58:29;;;;;;;14.32;10.23;;;;;;;;;;4980043;28;20015;-71
2022/09/22 04:00:55;;;;;;;17.88;9.57;;;;;;;;;;4974841;28;20405;-72
2022/09/22 04:03:23;;;;;;;14.93;9.35;;;;;;;;;;4975092;28;20022;-72
2022/09/22 04:05:50;;;;;;;16.75;10.50;;;;;;;;;;4992421;28;20026;-72
2022/09/22 04:08:16;;;;;;;21.35;11.32;;;;;;;;;;4991540;28;20037;-71
2022/09/22 04:10:42;;;;;;;17.25;11.60;;;;;;;;;;4992437;28;20037;-73
2022/09/22 04:13:08;;;;;;;15.02;10.52;;;;;;;;;;4992319;28;20018;-72
2022/09/22 04:15:34;;;;;;;15.00;10.73;;;;;;;;;;4991423;28;20443;-72
2022/09/22 04:18:00;;;;;;;19.58;12.30;;;;;;;;;;4973667;28;20014;-71
2022/09/22 04:20:26;;;;;;;17.75;13.60;;;;;;;;;;4991995;28;20391;-72
2022/09/22 04:22:52;;;;;;;22.38;15.13;;;;;;;;;;4974433;28;20034;-71
2022/09/22 04:25:18;;;;;;;19.58;13.07;;;;;;;;;;4992229;28;20022;-72
2022/09/22 04:27:44;;;;;;;24.65;15.05;;;;;;;;;;4991062;28;20511;-71
2022/09/22 04:30:10;;;;;;;20.10;13.73;;;;;;;;;;4991666;28;20034;-71
2022/09/22 04:32:36;;;;;;;20.17;15.15;;;;;;;;;;4991716;28;20089;-71
2022/09/22 04:35:02;;;;;;;21.05;15.63;;;;;;;;;;4972637;28;20476;-72
2022/09/22 04:37:28;;;;;;;22.35;16.00;;;;;;;;;;4990369;28;20019;-72
2022/09/22 04:39:54;;;;;;;28.67;15.30;;;;;;;;;;4991179;28;20049;-73
2022/09/22 04:42:20;;;;;;;20.58;15.40;;;;;;;;;;4991869;28;20026;-72
2022/09/22 04:44:46;;;;;;;19.73;14.25;;;;;;;;;;4991488;28;20030;-70
2022/09/22 04:47:13;;;;;;;17.42;13.77;;;;;;;;;;4991314;28;20611;-72
2022/09/22 04:49:39;;;;;;;19.95;13.48;;;;;;;;;;4991614;28;20026;-73
2022/09/22 04:52:05;;;;;;;21.73;13.30;;;;;;;;;;4991719;28;20484;-73
2022/09/22 04:54:31;;;;;;;22.95;13.90;;;;;;;;;;4974018;28;20036;-72
2022/09/22 04:56:57;;;;;;;17.85;12.30;;;;;;;;;;4991650;28;20488;-71
2022/09/22 04:59:23;;;;;;;19.15;14.27;;;;;;;;;;4990953;28;20026;-71
2022/09/22 05:01:49;;;;;;;22.13;15.18;;;;;;;;;;4991622;28;20118;-72
2022/09/22 05:04:15;;;;;;;18.92;12.93;;;;;;;;;;4991156;28;20492;-70
2022/09/22 05:06:41;;;;;;;24.13;14.48;;;;;;;;;;4991300;28;20049;-73
2022/09/22 05:09:07;;;;;;;23.17;15.05;;;;;;;;;;4990853;28;20097;-73
2022/09/22 05:11:33;;;;;;;20.17;15.00;;;;;;;;;;4991370;28;20064;-72
2022/09/22 05:14:01;;;;;;;28.90;20.15;;;;;;;;;;4991487;28;20034;-73
2022/09/22 05:16:27;;;;;;;40.80;26.02;;;;;;;;;;4991134;28;20173;-73
2022/09/22 05:18:53;;;;;;;42.78;25.70;;;;;;;;;;4973320;28;20197;-72
2022/09/22 05:21:19;;;;;;;30.77;23.38;;;;;;;;;;4991242;28;20038;-73
2022/09/22 05:23:45;;;;;;;21.88;15.65;;;;;;;;;;4991294;28;20025;-73
2022/09/22 05:26:11;;;;;;;14.98;11.00;;;;;;;;;;4974936;28;20034;-72
2022/09/22 05:28:37;;;;;;;16.00;8.95;;;;;;;;;;4977206;28;20085;-73
2022/09/22 05:31:04;;;;;;;16.27;8.48;;;;;;;;;;4994820;28;20125;-72
2022/09/22 05:33:30;;;;;;;12.48;7.40;;;;;;;;;;4993741;28;20085;-72
2022/09/22 05:35:56;;;;;;;10.40;6.45;;;;;;;;;;4995033;28;20022;-73
2022/09/22 05:38:22;;;;;;;11.07;5.47;;;;;;;;;;4994627;28;20424;-72
2022/09/22 05:40:47;;;;;;;10.65;5.50;;;;;;;;;;4995284;28;20031;-72
2022/09/22 05:43:14;;;;;;;7.95;5.20;;;;;;;;;;4995125;28;20042;-73
2022/09/22 05:45:40;;;;;;;13.18;5.07;;;;;;;;;;4995042;28;20121;-73
2022/09/22 05:48:06;;;;;;;10.50;4.80;;;;;;;;;;4993669;28;20503;-71
2022/09/22 05:50:32;;;;;;;8.35;4.40;;;;;;;;;;4993478;28;20030;-71
2022/09/22 05:53:02;;;;;;;7.80;4.55;;;;;;;;;;4994621;28;20057;-72
2022/09/22 05:55:28;;;;;;;7.88;4.32;;;;;;;;;;4994845;28;20030;-74
2022/09/22 05:57:57;;;;;;;6.60;4.43;;;;;;;;;;4993611;28;20404;-72
2022/09/22 06:00:23;;;;;;;7.28;5.18;;;;;;;;;;4993050;28;20046;-71
2022/09/22 06:02:49;;;;;;;13.05;5.10;;;;;;;;;;4994618;28;20473;-72
2022/09/22 06:05:15;;;;;;;5.90;3.97;;;;;;;;;;4994765;28;20031;-72
2022/09/22 06:07:41;;;;;;;10.80;4.50;;;;;;;;;;4993744;28;20034;-73
2022/09/22 06:10:10;;;;;;;10.07;5.00;;;;;;;;;;4994532;28;20041;-72
2022/09/22 06:12:36;;;;;;;9.45;4.25;;;;;;;;;;4994431;28;20050;-72
2022/09/22 06:15:03;;;;;;;17.85;5.32;;;;;;;;;;4994281;28;20114;-72
2022/09/22 06:17:29;;;;;;;9.75;4.97;;;;;;;;;;4994081;28;20448;-72
2022/09/22 06:19:55;;;;;;;11.25;4.60;;;;;;;;;;4994231;28;20077;-72
2022/09/22 06:22:23;;;;;;;7.68;4.40;;;;;;;;;;4994699;28;20034;-73
2022/09/22 06:24:49;;;;;;;6.95;3.70;;;;;;;;;;4994243;28;20042;-73
2022/09/22 06:27:15;;;;;;;10.57;4.20;;;;;;;;;;4993563;28;20026;-74
2022/09/22 06:29:41;;;;;;;9.45;4.45;;;;;;;;;;4993794;28;20022;-73
2022/09/22 06:32:08;;;;;;;9.35;3.80;;;;;;;;;;4992826;28;20066;-72
2022/09/22 06:34:37;;;;;;;7.28;4.10;;;;;;;;;;4993876;28;20030;-73
2022/09/22 06:37:12;;;;;;;9.15;4.80;;;;;;;;;;4993798;28;20439;-71
2022/09/22 06:39:38;;;;;;;7.90;3.80;;;;;;;;;;4976213;28;20472;-73
2022/09/22 06:42:04;;;;;;;7.18;4.13;;;;;;;;;;4994137;28;20105;-73
2022/09/22 06:44:31;;;;;;;8.07;4.30;;;;;;;;;;4993882;28;20033;-74
2022/09/22 06:46:57;;;;;;;7.45;3.83;;;;;;;;;;4992748;28;20023;-74
2022/09/22 06:49:23;;;;;;;6.93;3.67;;;;;;;;;;4993567;28;20081;-73
2022/09/22 06:51:50;;;;;;;7.15;3.78;;;;;;;;;;4994119;28;20379;-74
2022/09/22 06:54:16;;;;;;;6.22;3.83;;;;;;;;;;4992443;28;20106;-74
2022/09/22 06:56:42;;;;;;;7.38;3.72;;;;;;;;;;4993673;28;20392;-74
2022/09/22 06:59:11;;;;;;;7.35;4.43;;;;;;;;;;4975669;28;20091;-74
2022/09/22 07:01:38;;;;;;;7.18;4.40;;;;;;;;;;4993759;28;20099;-73
2022/09/22 07:04:04;;;;;;;10.40;4.22;;;;;;;;;;4993839;28;20091;-74
2022/09/22 07:06:30;;;;;;;9.75;4.25;;;;;;;;;;4993576;28;20022;-73
2022/09/22 07:08:56;;;;;;;8.13;4.80;;;;;;;;;;4989779;28;20504;-76
2022/09/22 07:11:22;;;;;;;11.23;4.65;;;;;;;;;;4992078;28;20069;-74
2022/09/22 07:13:49;;;;;;;7.70;4.95;;;;;;;;;;4970078;28;20067;-73
2022/09/22 07:16:16;;;;;;;11.23;5.57;;;;;;;;;;4988526;28;20133;-73
2022/09/22 07:18:43;;;;;;;10.65;5.55;;;;;;;;;;4988781;28;20026;-75
2022/09/22 07:21:11;;;;;;;7.25;5.05;;;;;;;;;;4989740;28;20373;-75
2022/09/22 07:23:37;;;;;;;11.43;5.75;;;;;;;;;;4974143;28;20027;-74
2022/09/22 07:26:05;;;;;;;10.57;5.38;;;;;;;;;;4990148;28;20076;-74
2022/09/22 07:28:32;;;;;;;8.70;5.13;;;;;;;;;;4992020;28;20018;-75
2022/09/22 07:31:06;;;;;;;7.60;5.28;;;;;;;;;;4992684;28;20117;-74
2022/09/22 07:33:33;;;;;;;10.77;5.05;;;;;;;;;;4993259;28;20022;-73
2022/09/22 07:36:00;;;;;;;8.85;5.03;;;;;;;;;;4989620;28;20026;-73
2022/09/22 07:38:30;;;;;;;12.70;5.82;;;;;;;;;;4992375;28;20424;-74
2022/09/22 07:40:58;;;;;;;8.20;5.25;;;;;;;;;;4993152;28;20027;-74
2022/09/22 07:43:24;;;;;;;8.48;6.57;;;;;;;;;;4992810;28;20069;-74
2022/09/22 07:45:53;;;;;;;9.23;5.80;;;;;;;;;;4992773;28;20022;-74
2022/09/22 07:48:41;;;;;;;12.32;6.78;;;;;;;;;;4979235;28;20081;-74
2022/09/22 07:51:09;;;;;;;10.30;6.70;;;;;;;;;;4988664;28;20038;-75
2022/09/22 07:53:35;;;;;;;8.35;6.28;;;;;;;;;;4992815;28;20026;-73
2022/09/22 07:56:05;;;;;;;8.40;6.10;;;;;;;;;;4992605;28;20097;-73
2022/09/22 07:58:32;;;;;;;9.13;6.35;;;;;;;;;;4992563;28;20439;-74
2022/09/22 08:00:58;;;;;;;8.45;5.60;;;;;;;;;;5007579;28;20037;-73
2022/09/22 08:03:24;;;;;;;8.27;5.93;;;;;;;;;;4992850;28;20022;-73
2022/09/22 08:05:52;;;;;;;8.45;5.68;;;;;;;;;;4991544;28;20217;-73
2022/09/22 08:08:18;;;;;;;7.68;4.97;;;;;;;;;;4991418;28;20018;-74
2022/09/22 08:10:44;;;;;;;9.80;6.28;;;;;;;;;;4992204;28;20095;-74
2022/09/22 08:13:10;;;;;;;10.45;5.78;;;;;;;;;;4992150;28;20022;-75
2022/09/22 08:15:39;;;;;;;7.80;6.03;;;;;;;;;;4992149;28;20032;-75
2022/09/22 08:18:05;;;;;;;7.75;5.90;;;;;;;;;;4991242;28;20026;-74
2022/09/22 08:20:32;;;;;;;10.68;6.07;;;;;;;;;;4992519;28;20026;-74
2022/09/22 08:23:01;;;;;;;9.73;5.97;;;;;;;;;;4992009;28;20120;-74
2022/09/22 08:25:28;;;;;;;6.70;5.50;;;;;;;;;;4991971;28;20495;-74
2022/09/22 08:27:54;;;;;;;9.07;5.97;;;;;;;;;;4990825;28;20093;-74
2022/09/22 08:30:20;;;;;;;12.40;5.75;;;;;;;;;;5016132;23;20014;-71
2022/09/22 08:32:46;;;;;;;6.82;5.53;;;;;;;;;;5000286;28;20033;-74
2022/09/22 08:35:12;;;;;;;12.20;6.15;;;;;;;;;;5010366;28;20038;-71
2022/09/22 08:37:40;;;;;;;13.18;5.53;;;;;;;;;;5007889;28;20080;-73
2022/09/22 08:40:06;;;;;;;13.02;5.60;;;;;;;;;;5011611;28;20036;-73
2022/09/22 08:42:33;;;;;;;9.13;5.57;;;;;;;;;;5011518;28;20034;-70
2022/09/22 08:45:09;;;;;;;8.55;5.68;;;;;;;;;;5011493;28;20018;-74
2022/09/22 08:53:21;;;;;;;9.18;5.35;;;;;;;;;;5011101;28;20059;-74
2022/09/22 08:55:50;;;;;;;7.13;5.05;;;;;;;;;;5010941;28;20456;-74
2022/09/22 08:58:41;;;;;;;7.20;4.72;;;;;;;;;;4990936;28;20018;-76
2022/09/22 09:01:17;;;;;;;6.95;4.90;;;;;;;;;;4992605;28;20116;-74
2022/09/22 09:04:12;;;;;;;5.82;3.72;;;;;;;;;;5008928;28;20018;-76
2022/09/22 09:06:38;;;;;;;6.45;4.15;;;;;;;;;;4937790;28;20035;-74
2022/09/22 09:09:16;;;;;;;7.75;5.10;;;;;;;;;;5001226;28;20029;-74
2022/09/22 09:11:43;;;;;;;5.63;4.07;;;;;;;;;;5010343;28;20129;-74
2022/09/22 09:14:29;;;;;;;7.75;4.30;;;;;;;;;;5010863;28;20102;-74
2022/09/22 09:17:03;;;;;;;7.65;4.72;;;;;;;;;;4999899;28;20030;-74
2022/09/22 09:19:33;;;;;;;10.50;5.07;;;;;;;;;;4991123;28;20060;-74
2022/09/22 09:22:05;;;;;;;7.40;4.90;;;;;;;;;;5008828;28;20030;-74
2022/09/22 09:24:46;;;;;;;6.80;5.13;;;;;;;;;;5008813;28;20129;-74
2022/09/22 09:27:15;;;;;;;8.60;4.18;;;;;;;;;;5008568;28;20022;-74
2022/09/22 09:29:50;;;;;;;5.05;3.63;;;;;;;;;;5010549;28;20032;-74
2022/09/22 09:32:20;;;;;;;7.75;4.47;;;;;;;;;;5010819;28;20061;-73
2022/09/22 09:34:48;;;;;;;5.60;4.43;;;;;;;;;;5009407;28;20101;-74
2022/09/22 09:37:15;;;;;;;5.15;4.43;;;;;;;;;;5009599;28;20538;-75
2022/09/22 09:39:42;;;;;;;6.47;4.72;;;;;;;;;;5004933;28;20038;-74
2022/09/22 09:42:18;;;;;;;7.85;4.93;;;;;;;;;;5002225;28;20025;-73
2022/09/22 09:44:46;;;;;;;8.48;4.80;;;;;;;;;;5002772;28;20050;-74
2022/09/22 09:47:19;;;;;;;7.18;4.45;;;;;;;;;;4997511;28;20476;-74
2022/09/22 09:49:48;;;;;;;6.45;5.13;;;;;;;;;;5008086;28;20010;-74
2022/09/22 09:52:14;;;;;;;7.60;3.83;;;;;;;;;;5010658;28;20068;-75
2022/09/22 09:54:41;;;;;;;6.22;4.00;;;;;;;;;;5010281;28;20129;-74
2022/09/22 09:57:07;;;;;;;10.93;3.83;;;;;;;;;;5008881;28;20030;-73
2022/09/22 10:02:28;;;;;;;7.57;3.58;;;;;;;;;;5004536;28;20103;-75
2022/09/22 10:05:00;;;;;;;4.18;3.50;;;;;;;;;;4997105;28;20031;-74
2022/09/22 10:07:29;;;;;;;6.90;5.18;;;;;;;;;;5006041;28;20547;-75
2022/09/22 10:09:55;;;;;;;6.28;4.35;;;;;;;;;;4978230;28;20484;-74
2022/09/22 10:12:27;;;;;;;5.85;3.85;;;;;;;;;;5008303;28;20476;-75
2022/09/22 10:14:54;;;;;;;9.77;4.15;;;;;;;;;;5011475;28;20048;-73
2022/09/22 10:17:27;;;;;;;7.38;4.03;;;;;;;;;;5011759;28;20022;-73
2022/09/22 10:20:15;;;;;;;4.38;3.85;;;;;;;;;;4995879;28;20044;-73
2022/09/22 10:22:41;;;;;;;6.00;3.20;;;;;;;;;;5013480;28;20030;-74
2022/09/22 10:25:18;;;;;;;3.55;3.05;;;;;;;;;;5009613;28;20018;-72
2022/09/22 10:27:58;;;;;;;5.88;3.58;;;;;;;;;;5012796;28;20045;-75
2022/09/22 10:30:24;;;;;;;9.95;2.78;;;;;;;;;;4996998;28;20431;-74
2022/09/22 10:33:13;;;;;;;12.85;3.03;;;;;;;;;;5013455;28;20546;-74
2022/09/22 10:35:58;;;;;;;5.75;3.20;;;;;;;;;;4985805;28;20042;-74
2022/09/22 10:38:25;;;;;;;1.63;1.52;;;;;;;;;;5003234;28;20373;-75
2022/09/22 10:40:55;;;;;;;3.58;1.88;;;;;;;;;;5007670;28;20030;-74
2022/09/22 10:43:23;;;;;;;5.50;1.75;;;;;;;;;;5001369;28;20026;-74
2022/09/22 10:46:10;;;;;;;2.50;1.50;;;;;;;;;;5013535;28;20033;-74
2022/09/22 10:48:39;;;;;;;2.13;1.50;;;;;;;;;;4971383;28;20041;-74
2022/09/22 10:51:08;;;;;;;2.15;1.50;;;;;;;;;;5013685;28;20029;-74
2022/09/22 10:53:46;;;;;;;3.03;1.60;;;;;;;;;;5011516;28;20392;-74
2022/09/22 10:56:29;;;;;;;5.63;2.10;;;;;;;;;;5012643;28;20117;-74
2022/09/22 10:59:04;;;;;;;4.05;1.98;;;;;;;;;;5017660;28;20410;-74
2022/09/22 11:01:42;;;;;;;3.53;1.77;;;;;;;;;;4995099;28;20458;-73
2022/09/22 11:04:13;;;;;;;2.58;2.10;;;;;;;;;;5011266;28;20042;-72
2022/09/22 11:12:28;;;;;;;2.53;1.83;;;;;;;;;;5011412;28;20140;-73
2022/09/22 11:15:12;;;;;;;2.15;1.10;;;;;;;;;;5011057;28;20053;-73
2022/09/22 11:17:59;;;;;;;2.88;1.77;;;;;;;;;;5011677;28;20029;-73
2022/09/22 11:20:25;;;;;;;3.83;1.83;;;;;;;;;;5013168;28;20030;-73
2022/09/22 11:23:00;;;;;;;2.28;1.52;;;;;;;;;;5012929;28;20113;-73
2022/09/22 11:25:44;;;;;;;2.47;2.10;;;;;;;;;;5012629;28;20026;-74
2022/09/22 11:28:13;;;;;;;1.88;1.40;;;;;;;;;;4994337;28;20400;-74
2022/09/22 11:30:46;;;;;;;3.40;1.58;;;;;;;;;;5012545;28;20096;-73
2022/09/22 11:33:21;;;;;;;3.10;2.03;;;;;;;;;;5012858;28;20042;-73
2022/09/22 11:36:01;;;;;;;2.70;1.77;;;;;;;;;;5012426;28;20477;-74
2022/09/22 11:38:46;;;;;;;5.70;1.60;;;;;;;;;;4999910;28;20018;-74
2022/09/22 11:41:15;;;;;;;1.65;1.10;;;;;;;;;;5012438;28;20030;-73
2022/09/22 11:43:54;;;;;;;4.90;1.38;;;;;;;;;;4994941;28;20026;-74
2022/09/22 11:46:41;;;;;;;1.65;1.40;;;;;;;;;;5012613;28;20021;-73
2022/09/22 11:49:16;;;;;;;3.45;1.85;;;;;;;;;;4994277;28;20029;-73
2022/09/22 11:52:01;;;;;;;1.60;1.45;;;;;;;;;;4982057;28;20026;-74
2022/09/22 11:54:39;;;;;;;2.00;1.08;;;;;;;;;;4994587;28;20034;-75
2022/09/22 11:57:12;;;;;;;1.13;0.88;;;;;;;;;;5011644;28;20046;-73
2022/09/22 11:59:41;;;;;;;2.75;0.77;;;;;;;;;;5019805;28;20017;-73
2022/09/22 12:02:17;;;;;;;1.95;0.70;;;;;;;;;;5012097;28;20105;-73
2022/09/22 12:04:46;;;;;;;2.08;1.02;;;;;;;;;;4994257;28;20026;-73
2022/09/22 12:07:16;;;;;;;1.15;0.60;;;;;;;;;;5011223;28;20026;-74
2022/09/22 12:09:54;;;;;;;1.50;0.60;;;;;;;;;;5011909;28;20084;-74
2022/09/22 12:12:21;;;;;;;3.47;1.58;;;;;;;;;;5011807;28;20448;-74
2022/09/22 12:14:51;;;;;;;6.88;1.33;;;;;;;;;;5011756;28;20018;-73
2022/09/22 12:17:20;;;;;;;3.08;1.13;;;;;;;;;;5011272;28;20029;-74
2022/09/22 12:19:54;;;;;;;1.52;0.75;;;;;;;;;;5011580;28;20779;-75
2022/09/22 12:22:27;;;;;;;4.18;1.38;;;;;;;;;;4994461;28;20144;-74
2022/09/22 12:24:53;;;;;;;3.63;1.33;;;;;;;;;;5011777;28;20022;-74
2022/09/22 12:27:21;;;;;;;3.28;1.30;;;;;;;;;;5011111;28;20037;-74
2022/09/22 12:29:53;;;;;;;8.25;3.20;;;;;;;;;;5011806;28;20025;-71
2022/09/22 12:32:22;;;;;;;8.27;2.38;;;;;;;;;;5012115;28;20037;-73
2022/09/22 12:34:48;;;;;;;1.40;0.90;;;;;;;;;;5012290;28;20025;-72
2022/09/22 12:37:27;;;;;;;2.08;0.90;;;;;;;;;;5005589;28;20018;-73
2022/09/22 12:39:53;;;;;;;2.83;0.85;;;;;;;;;;5011168;28;20500;-73
2022/09/22 12:42:22;;;;;;;0.80;0.80;;;;;;;;;;5011298;28;20026;-74
2022/09/22 12:44:57;;;;;;;4.72;0.82;;;;;;;;;;5010872;28;20072;-73
2022/09/22 12:47:25;;;;;;;2.97;0.80;;;;;;;;;;5010590;28;20032;-73
2022/09/22 12:49:54;;;;;;;1.40;0.80;;;;;;;;;;5011098;28;20503;-74
2022/09/22 12:52:37;;;;;;;1.80;1.10;;;;;;;;;;5011244;28;20033;-73
2022/09/22 12:55:15;;;;;;;1.77;0.60;;;;;;;;;;4998255;28;20096;-73
2022/09/22 12:57:48;;;;;;;2.95;1.02;;;;;;;;;;5009982;28;20025;-70
2022/09/22 13:00:34;;;;;;;1.15;0.80;;;;;;;;;;5003499;28;20033;-71
2022/09/22 13:03:00;;;;;;;2.67;1.50;;;;;;;;;;5010568;28;20028;-71
2022/09/22 13:05:26;;;;;;;2.63;0.80;;;;;;;;;;5010909;28;20052;-73
2022/09/22 13:07:54;;;;;;;1.77;1.08;;;;;;;;;;5010150;28;20026;-72
2022/09/22 13:10:23;;;;;;;1.73;0.68;;;;;;;;;;5010936;28;20053;-71
2022/09/22 13:13:01;;;;;;;1.55;1.20;;;;;;;;;;5007991;28;20036;-73
2022/09/22 13:15:50;;;;;;;1.15;0.80;;;;;;;;;;4991531;28;20026;-71
2022/09/22 13:18:40;;;;;;;1.35;0.65;;;;;;;;;;4992064;28;20022;-73
2022/09/22 13:21:11;;;;;;;1.80;0.60;;;;;;;;;;5000420;28;20042;-70
2022/09/22 13:23:56;;;;;;;0.70;0.65;;;;;;;;;;5010733;28;20030;-73
2022/09/22 13:26:30;;;;;;;0.77;0.57;;;;;;;;;;5010620;28;20022;-71
2022/09/22 13:29:02;;;;;;;1.10;0.70;;;;;;;;;;5010141;28;20030;-70
2022/09/22 13:31:28;;;;;;;1.08;0.50;;;;;;;;;;5010132;28;20065;-70
2022/09/22 13:33:54;;;;;;;2.63;0.70;;;;;;;;;;5010787;28;20029;-70
2022/09/22 13:36:22;;;;;;;2.80;0.57;;;;;;;;;;5010381;28;20050;-72
2022/09/22 13:38:53;;;;;;;0.63;0.63;;;;;;;;;;5009813;28;20022;-73
2022/09/22 13:41:24;;;;;;;0.63;0.45;;;;;;;;;;4992787;28;20026;-71
2022/09/22 13:43:53;;;;;;;4.38;0.60;;;;;;;;;;4993510;28;20037;-72
2022/09/22 13:46:24;;;;;;;2.78;0.70;;;;;;;;;;5011375;28;20040;-73
2022/09/22 13:48:52;;;;;;;0.82;0.43;;;;;;;;;;4997690;28;20399;-74
2022/09/22 13:51:18;;;;;;;0.73;0.60;;;;;;;;;;4999002;28;20469;-72
2022/09/22 13:53:48;;;;;;;0.80;0.65;;;;;;;;;;5016679;28;20021;-72
2022/09/22 13:56:17;;;;;;;0.80;0.38;;;;;;;;;;5014359;28;20105;-73
2022/09/22 13:58:44;;;;;;;0.50;0.50;;;;;;;;;;5012962;28;20456;-73
2022/09/22 14:01:18;;;;;;;0.73;0.63;;;;;;;;;;4996130;28;20029;-72
2022/09/22 14:03:44;;;;;;;1.67;0.88;;;;;;;;;;5013960;28;20049;-70
2022/09/22 14:06:14;;;;;;;1.33;0.80;;;;;;;;;;5013652;28;20026;-72
2022/09/22 14:08:40;;;;;;;1.37;0.67;;;;;;;;;;5013280;28;20081;-75
2022/09/22 14:11:11;;;;;;;1.02;0.80;;;;;;;;;;5013767;28;20770;-73
2022/09/22 14:13:52;;;;;;;1.85;0.60;;;;;;;;;;5014004;28;20488;-73
2022/09/22 14:16:18;;;;;;;;;;;;;;;;;;5013633;28;20467;-69
2022/09/22 14:18:46;;;;;;;1.45;0.47;;;;;;;;;;5011174;28;19984;-72
2022/09/22 14:21:12;;;;;;;0.93;0.65;;;;;;;;;;5012136;28;20102;-72
2022/09/22 14:23:43;;;;;;;0.80;0.60;;;;;;;;;;4995810;28;20699;-73
2022/09/22 14:26:32;;;;;;;3.10;0.85;;;;;;;;;;5013379;28;20034;-70
2022/09/22 14:28:59;;;;;;;1.50;0.80;;;;;;;;;;5012565;28;20462;-72
2022/09/22 14:31:27;;;;;;;3.35;1.00;;;;;;;;;;5017925;23;20460;-73
2022/09/22 14:33:54;;;;;;;1.05;0.95;;;;;;;;;;5013644;28;20116;-74
2022/09/22 14:36:24;;;;;;;1.83;0.63;;;;;;;;;;5013178;28;20014;-73
2022/09/22 14:38:54;;;;;;;1.35;1.20;;;;;;;;;;5003571;28;20022;-73
2022/09/22 14:41:24;;;;;;;0.82;0.77;;;;;;;;;;5012903;28;20032;-74
2022/09/22 14:43:53;;;;;;;2.13;0.95;;;;;;;;;;5013284;28;20112;-72
2022/09/22 14:46:24;;;;;;;2.40;1.20;;;;;;;;;;5013097;28;20026;-75
2022/09/22 14:48:50;;;;;;;1.92;1.00;;;;;;;;;;5012787;28;20105;-73
2022/09/22 14:51:20;;;;;;;2.05;0.80;;;;;;;;;;5012661;28;20101;-72
2022/09/22 14:53:53;;;;;;;2.17;0.80;;;;;;;;;;5012564;28;20475;-71
2022/09/22 14:56:26;;;;;;;1.88;1.02;;;;;;;;;;5012984;28;20049;-73
2022/09/22 14:58:53;;;;;;;0.80;0.70;;;;;;;;;;5011716;28;20414;-74
2022/09/22 15:04:11;;;;;;;1.52;0.75;;;;;;;;;;5013845;28;20096;-73
2022/09/22 15:06:38;;;;;;;1.63;0.82;;;;;;;;;;5013058;28;20069;-72
2022/09/22 15:09:05;;;;;;;1.55;0.65;;;;;;;;;;5012565;28;20065;-74
2022/09/22 15:11:52;;;;;;;1.02;0.60;;;;;;;;;;5012920;28;20522;-72
2022/09/22 15:14:39;;;;;;;3.30;0.63;;;;;;;;;;5012645;28;20464;-72